Terminal Aerodrome Forecast
Issued by NWS

Home | Current Version | Previous Version | Graphics & Text | Print | Product List | Glossary On
Versions: 1 2 3 4 5 6 7 8 9 10 11 12 13 14 15 16 17 18 19 20 21 22 23 24 25 26 27 28 29
027
FTUS43 KLOT 022334
TAFORD
TAF
KORD 022334Z 0300/0406 08010KT 2SM -SHRA BR OVC005
     FM030100 05006KT 1 1/2SM -DZ BR OVC004
     FM030300 VRB05KT 1SM -DZ BR OVC003
     FM030800 19006KT 4SM BR OVC007
     FM031000 22012G19KT P6SM SKC
     FM031400 23015G25KT P6SM OVC015 PROB30 0315/0319 5SM -SHRASN
     FM031900 28015G25KT P6SM OVC020=

USA.gov is the U.S. government's official web portal to all federal, state and local government web resources and services.